CheckWX is a tool to help pilots better visualize weather data.  It is not intended as a substitute for an official pre-flight weather briefing.

00:51:14 UTC

GCLP METAR
Gran Canaria Airport
Gran Canaria Island, Spain
Current

21 mins ago

GCLP 240030Z 35015KT 9999 FEW020 17/11 Q1014 NOSIG
Observed
Mar-24 @ 00:30 UTC
Wind
  • 350° at 15 KTS
Visibility
10,000+ meters
Flight Rules
VFR
Cloud Levels
  • Few at 2,000' AGL
Temperature
17°C / 63°F
Dewpoint
11°C / 52°F
Humidity
68%
Altimeter
29.94" Hg
Pressure
1013.92 hPa
Previous

51 mins ago

GCLP 240000Z 35014KT 9999 FEW020 17/11 Q1014 NOSIG
Observed
Mar-24 @ 00:00 UTC
Wind
  • 350° at 14 KTS
Visibility
10,000+ meters
Flight Rules
VFR
Cloud Levels
  • Few at 2,000' AGL
Temperature
17°C / 63°F
Dewpoint
11°C / 52°F
Humidity
68%
Altimeter
29.94" Hg
Pressure
1013.92 hPa
Previous

1 hour ago

GCLP 232330Z 35014KT 9999 FEW035 17/10 Q1014 NOSIG
Observed
Mar-23 @ 23:30 UTC
Wind
  • 350° at 14 KTS
Visibility
10,000+ meters
Flight Rules
VFR
Cloud Levels
  • Few at 3,500' AGL
Temperature
17°C / 63°F
Dewpoint
10°C / 50°F
Humidity
64%
Altimeter
29.94" Hg
Pressure
1013.92 hPa